sensor_id;sensor_type;location;lat;lon;timestamp;temperature;humidity
8248;DHT22;4164;49.844;8.830;2023-06-05T00:01:34;12.50;99.90
8248;DHT22;4164;49.844;8.830;2023-06-05T00:04:00;12.40;99.90
8248;DHT22;4164;49.844;8.830;2023-06-05T00:06:26;12.30;99.90
8248;DHT22;4164;49.844;8.830;2023-06-05T00:08:52;12.40;99.90
8248;DHT22;4164;49.844;8.830;2023-06-05T00:11:17;12.30;99.90
8248;DHT22;4164;49.844;8.830;2023-06-05T00:13:43;12.40;99.90
8248;DHT22;4164;49.844;8.830;2023-06-05T00:16:08;12.30;99.90
8248;DHT22;4164;49.844;8.830;2023-06-05T00:18:34;12.30;99.90
8248;DHT22;4164;49.844;8.830;2023-06-05T00:20:59;12.20;99.90
8248;DHT22;4164;49.844;8.830;2023-06-05T00:23:25;12.10;99.90
8248;DHT22;4164;49.844;8.830;2023-06-05T00:25:51;12.00;99.90
8248;DHT22;4164;49.844;8.830;2023-06-05T00:28:16;12.30;99.90
8248;DHT22;4164;49.844;8.830;2023-06-05T00:30:43;12.30;99.90
8248;DHT22;4164;49.844;8.830;2023-06-05T00:33:08;12.30;99.90
8248;DHT22;4164;49.844;8.830;2023-06-05T00:35:34;12.20;99.90
8248;DHT22;4164;49.844;8.830;2023-06-05T00:37:59;12.20;99.90
8248;DHT22;4164;49.844;8.830;2023-06-05T00:40:25;12.20;99.90
8248;DHT22;4164;49.844;8.830;2023-06-05T00:42:51;12.20;99.90
8248;DHT22;4164;49.844;8.830;2023-06-05T00:45:16;12.10;99.90
8248;DHT22;4164;49.844;8.830;2023-06-05T00:47:42;12.20;99.90
8248;DHT22;4164;49.844;8.830;2023-06-05T00:50:08;12.20;99.90
8248;DHT22;4164;49.844;8.830;2023-06-05T00:52:37;12.20;99.90
8248;DHT22;4164;49.844;8.830;2023-06-05T00:55:02;12.10;99.90
8248;DHT22;4164;49.844;8.830;2023-06-05T00:57:29;12.10;99.90
8248;DHT22;4164;49.844;8.830;2023-06-05T00:59:55;12.10;99.90
8248;DHT22;4164;49.844;8.830;2023-06-05T01:02:21;12.10;99.90
8248;DHT22;4164;49.844;8.830;2023-06-05T01:04:46;12.00;99.90
8248;DHT22;4164;49.844;8.830;2023-06-05T01:07:13;12.00;99.90
8248;DHT22;4164;49.844;8.830;2023-06-05T01:09:40;12.00;99.90
8248;DHT22;4164;49.844;8.830;2023-06-05T01:12:20;12.00;99.90
8248;DHT22;4164;49.844;8.830;2023-06-05T01:14:48;12.00;99.90
8248;DHT22;4164;49.844;8.830;2023-06-05T01:17:17;11.90;99.90
8248;DHT22;4164;49.844;8.830;2023-06-05T01:19:45;11.90;99.90
8248;DHT22;4164;49.844;8.830;2023-06-05T01:22:11;11.80;99.90
8248;DHT22;4164;49.844;8.830;2023-06-05T01:24:43;11.70;99.90
8248;DHT22;4164;49.844;8.830;2023-06-05T01:27:18;11.60;99.90
8248;DHT22;4164;49.844;8.830;2023-06-05T01:30:00;11.60;99.90
8248;DHT22;4164;49.844;8.830;2023-06-05T01:35:06;11.60;99.90
8248;DHT22;4164;49.844;8.830;2023-06-05T01:37:34;11.70;99.90
8248;DHT22;4164;49.844;8.830;2023-06-05T01:40:02;11.70;99.90
8248;DHT22;4164;49.844;8.830;2023-06-05T01:42:31;11.70;99.90
8248;DHT22;4164;49.844;8.830;2023-06-05T01:44:57;11.60;99.90
8248;DHT22;4164;49.844;8.830;2023-06-05T01:47:24;11.60;99.90
8248;DHT22;4164;49.844;8.830;2023-06-05T01:49:50;11.50;99.90
8248;DHT22;4164;49.844;8.830;2023-06-05T01:52:15;11.40;99.90
8248;DHT22;4164;49.844;8.830;2023-06-05T01:54:41;11.30;99.90
8248;DHT22;4164;49.844;8.830;2023-06-05T01:57:07;11.40;99.90
8248;DHT22;4164;49.844;8.830;2023-06-05T01:59:34;11.40;99.90
8248;DHT22;4164;49.844;8.830;2023-06-05T02:02:00;11.30;99.90
8248;DHT22;4164;49.844;8.830;2023-06-05T02:04:26;11.30;99.90
8248;DHT22;4164;49.844;8.830;2023-06-05T02:06:53;11.20;99.90
8248;DHT22;4164;49.844;8.830;2023-06-05T02:09:18;11.30;99.90
8248;DHT22;4164;49.844;8.830;2023-06-05T02:11:45;11.30;99.90
8248;DHT22;4164;49.844;8.830;2023-06-05T02:14:12;11.30;99.90
8248;DHT22;4164;49.844;8.830;2023-06-05T02:16:41;11.30;99.90
8248;DHT22;4164;49.844;8.830;2023-06-05T02:19:06;11.30;99.90
8248;DHT22;4164;49.844;8.830;2023-06-05T02:21:32;11.20;99.90
8248;DHT22;4164;49.844;8.830;2023-06-05T02:23:59;11.10;99.90
8248;DHT22;4164;49.844;8.830;2023-06-05T02:26:25;11.00;99.90
8248;DHT22;4164;49.844;8.830;2023-06-05T02:28:51;11.00;99.90
8248;DHT22;4164;49.844;8.830;2023-06-05T02:31:22;11.00;99.90
8248;DHT22;4164;49.844;8.830;2023-06-05T02:33:51;10.70;99.90
8248;DHT22;4164;49.844;8.830;2023-06-05T02:36:17;10.80;99.90
8248;DHT22;4164;49.844;8.830;2023-06-05T02:38:43;10.80;99.90
8248;DHT22;4164;49.844;8.830;2023-06-05T02:41:09;10.80;99.90
8248;DHT22;4164;49.844;8.830;2023-06-05T02:43:35;10.90;99.90
8248;DHT22;4164;49.844;8.830;2023-06-05T02:46:01;10.70;99.90
8248;DHT22;4164;49.844;8.830;2023-06-05T02:48:26;10.80;99.90
8248;DHT22;4164;49.844;8.830;2023-06-05T02:50:52;10.80;99.90
8248;DHT22;4164;49.844;8.830;2023-06-05T02:53:17;10.80;99.90
8248;DHT22;4164;49.844;8.830;2023-06-05T02:55:44;10.70;99.90
8248;DHT22;4164;49.844;8.830;2023-06-05T02:58:10;10.70;99.90
8248;DHT22;4164;49.844;8.830;2023-06-05T03:00:38;10.70;99.90
8248;DHT22;4164;49.844;8.830;2023-06-05T03:03:04;10.60;99.90
8248;DHT22;4164;49.844;8.830;2023-06-05T03:05:32;10.60;99.90
8248;DHT22;4164;49.844;8.830;2023-06-05T03:07:58;10.60;99.90
8248;DHT22;4164;49.844;8.830;2023-06-05T03:10:26;10.50;99.90
8248;DHT22;4164;49.844;8.830;2023-06-05T03:12:53;10.40;99.90
8248;DHT22;4164;49.844;8.830;2023-06-05T03:15:18;10.30;99.90
8248;DHT22;4164;49.844;8.830;2023-06-05T03:17:44;10.40;99.90
8248;DHT22;4164;49.844;8.830;2023-06-05T03:20:11;10.30;99.90
8248;DHT22;4164;49.844;8.830;2023-06-05T03:22:37;10.40;99.90
8248;DHT22;4164;49.844;8.830;2023-06-05T03:25:04;10.40;99.90
8248;DHT22;4164;49.844;8.830;2023-06-05T03:27:29;10.40;99.90
8248;DHT22;4164;49.844;8.830;2023-06-05T03:29:55;10.40;99.90
8248;DHT22;4164;49.844;8.830;2023-06-05T03:32:21;10.40;99.90
8248;DHT22;4164;49.844;8.830;2023-06-05T03:34:47;10.40;99.90
8248;DHT22;4164;49.844;8.830;2023-06-05T03:37:14;10.50;99.90
8248;DHT22;4164;49.844;8.830;2023-06-05T03:39:40;10.50;99.90
8248;DHT22;4164;49.844;8.830;2023-06-05T03:42:06;10.40;99.90
8248;DHT22;4164;49.844;8.830;2023-06-05T03:44:37;10.50;99.90
8248;DHT22;4164;49.844;8.830;2023-06-05T03:47:03;10.50;99.90
8248;DHT22;4164;49.844;8.830;2023-06-05T03:49:29;10.50;99.90
8248;DHT22;4164;49.844;8.830;2023-06-05T03:51:55;10.40;99.90
8248;DHT22;4164;49.844;8.830;2023-06-05T03:54:30;10.40;99.90
8248;DHT22;4164;49.844;8.830;2023-06-05T03:56:58;10.40;99.90
8248;DHT22;4164;49.844;8.830;2023-06-05T03:59:26;10.40;99.90
8248;DHT22;4164;49.844;8.830;2023-06-05T04:01:55;10.40;99.90
8248;DHT22;4164;49.844;8.830;2023-06-05T04:04:20;10.50;99.90
8248;DHT22;4164;49.844;8.830;2023-06-05T04:06:46;10.50;99.90
8248;DHT22;4164;49.844;8.830;2023-06-05T04:09:12;10.50;99.90
8248;DHT22;4164;49.844;8.830;2023-06-05T04:11:42;10.50;99.90
8248;DHT22;4164;49.844;8.830;2023-06-05T04:14:11;10.60;99.90
8248;DHT22;4164;49.844;8.830;2023-06-05T04:16:37;10.60;99.90
8248;DHT22;4164;49.844;8.830;2023-06-05T04:19:07;10.70;99.90
8248;DHT22;4164;49.844;8.830;2023-06-05T04:21:35;10.70;99.90
8248;DHT22;4164;49.844;8.830;2023-06-05T04:24:02;10.80;99.90
8248;DHT22;4164;49.844;8.830;2023-06-05T04:26:35;10.80;99.90
8248;DHT22;4164;49.844;8.830;2023-06-05T04:29:01;10.90;99.90
8248;DHT22;4164;49.844;8.830;2023-06-05T04:31:41;11.00;99.90
8248;DHT22;4164;49.844;8.830;2023-06-05T04:34:07;11.20;99.90
8248;DHT22;4164;49.844;8.830;2023-06-05T04:36:35;11.30;99.90
8248;DHT22;4164;49.844;8.830;2023-06-05T04:39:01;11.40;99.90
8248;DHT22;4164;49.844;8.830;2023-06-05T04:41:29;11.50;99.90
8248;DHT22;4164;49.844;8.830;2023-06-05T04:43:55;11.60;99.90
8248;DHT22;4164;49.844;8.830;2023-06-05T04:46:22;11.60;99.90
8248;DHT22;4164;49.844;8.830;2023-06-05T04:48:48;11.70;99.90
8248;DHT22;4164;49.844;8.830;2023-06-05T04:51:14;11.70;99.90
8248;DHT22;4164;49.844;8.830;2023-06-05T04:53:39;11.70;99.90
8248;DHT22;4164;49.844;8.830;2023-06-05T04:56:07;11.80;99.90
8248;DHT22;4164;49.844;8.830;2023-06-05T04:58:32;11.90;99.90
8248;DHT22;4164;49.844;8.830;2023-06-05T05:00:58;12.10;99.90
8248;DHT22;4164;49.844;8.830;2023-06-05T05:03:31;12.20;99.90
8248;DHT22;4164;49.844;8.830;2023-06-05T05:05:56;12.30;99.90
8248;DHT22;4164;49.844;8.830;2023-06-05T05:08:22;12.40;99.90
8248;DHT22;4164;49.844;8.830;2023-06-05T05:10:48;12.40;99.90
8248;DHT22;4164;49.844;8.830;2023-06-05T05:13:13;12.60;99.90
8248;DHT22;4164;49.844;8.830;2023-06-05T05:15:39;12.80;99.90
8248;DHT22;4164;49.844;8.830;2023-06-05T05:18:04;12.90;99.90
8248;DHT22;4164;49.844;8.830;2023-06-05T05:20:30;12.90;99.90
8248;DHT22;4164;49.844;8.830;2023-06-05T05:22:59;13.00;99.90
8248;DHT22;4164;49.844;8.830;2023-06-05T05:25:25;13.20;99.90
8248;DHT22;4164;49.844;8.830;2023-06-05T05:27:51;13.30;99.90
8248;DHT22;4164;49.844;8.830;2023-06-05T05:30:17;13.50;99.90
8248;DHT22;4164;49.844;8.830;2023-06-05T05:32:42;13.60;99.90
8248;DHT22;4164;49.844;8.830;2023-06-05T05:35:08;13.60;99.90
8248;DHT22;4164;49.844;8.830;2023-06-05T05:37:34;13.60;99.90
8248;DHT22;4164;49.844;8.830;2023-06-05T05:39:59;13.70;99.90
8248;DHT22;4164;49.844;8.830;2023-06-05T05:42:25;13.80;99.90
8248;DHT22;4164;49.844;8.830;2023-06-05T05:44:50;13.90;99.90
8248;DHT22;4164;49.844;8.830;2023-06-05T05:47:16;14.00;99.90
8248;DHT22;4164;49.844;8.830;2023-06-05T05:49:41;14.00;99.90
8248;DHT22;4164;49.844;8.830;2023-06-05T05:52:08;14.20;99.90
8248;DHT22;4164;49.844;8.830;2023-06-05T05:54:34;14.50;99.90
8248;DHT22;4164;49.844;8.830;2023-06-05T05:56:59;14.60;99.90
8248;DHT22;4164;49.844;8.830;2023-06-05T05:59:25;14.70;99.90
8248;DHT22;4164;49.844;8.830;2023-06-05T06:01:51;14.70;99.90
8248;DHT22;4164;49.844;8.830;2023-06-05T06:04:17;14.90;99.90
8248;DHT22;4164;49.844;8.830;2023-06-05T06:06:43;15.00;99.90
8248;DHT22;4164;49.844;8.830;2023-06-05T06:09:09;15.00;99.90
8248;DHT22;4164;49.844;8.830;2023-06-05T06:11:36;15.30;99.90
8248;DHT22;4164;49.844;8.830;2023-06-05T06:14:02;15.40;99.30
8248;DHT22;4164;49.844;8.830;2023-06-05T06:16:27;15.40;99.30
8248;DHT22;4164;49.844;8.830;2023-06-05T06:18:53;15.40;98.50
8248;DHT22;4164;49.844;8.830;2023-06-05T06:21:20;15.40;98.10
8248;DHT22;4164;49.844;8.830;2023-06-05T06:23:46;15.70;99.90
8248;DHT22;4164;49.844;8.830;2023-06-05T06:26:12;15.70;99.90
8248;DHT22;4164;49.844;8.830;2023-06-05T06:28:40;15.70;99.90
8248;DHT22;4164;49.844;8.830;2023-06-05T06:31:05;16.00;98.80
8248;DHT22;4164;49.844;8.830;2023-06-05T06:33:31;16.20;98.30
8248;DHT22;4164;49.844;8.830;2023-06-05T06:35:57;16.30;99.00
8248;DHT22;4164;49.844;8.830;2023-06-05T06:38:24;16.50;97.20
8248;DHT22;4164;49.844;8.830;2023-06-05T06:40:56;16.50;95.40
8248;DHT22;4164;49.844;8.830;2023-06-05T06:43:22;16.60;94.90
8248;DHT22;4164;49.844;8.830;2023-06-05T06:45:48;16.80;96.30
8248;DHT22;4164;49.844;8.830;2023-06-05T06:48:15;17.10;96.60
8248;DHT22;4164;49.844;8.830;2023-06-05T06:50:42;17.40;95.90
8248;DHT22;4164;49.844;8.830;2023-06-05T06:53:08;17.30;94.90
8248;DHT22;4164;49.844;8.830;2023-06-05T06:55:33;17.20;94.20
8248;DHT22;4164;49.844;8.830;2023-06-05T06:57:59;17.30;93.70
8248;DHT22;4164;49.844;8.830;2023-06-05T07:00:25;17.50;93.60
8248;DHT22;4164;49.844;8.830;2023-06-05T07:02:51;17.60;92.60
8248;DHT22;4164;49.844;8.830;2023-06-05T07:05:16;17.70;91.40
8248;DHT22;4164;49.844;8.830;2023-06-05T07:07:43;17.90;92.00
8248;DHT22;4164;49.844;8.830;2023-06-05T07:10:09;18.10;92.10
8248;DHT22;4164;49.844;8.830;2023-06-05T07:12:34;18.30;92.10
8248;DHT22;4164;49.844;8.830;2023-06-05T07:15:00;18.40;90.70
8248;DHT22;4164;49.844;8.830;2023-06-05T07:17:25;18.30;89.20
8248;DHT22;4164;49.844;8.830;2023-06-05T07:19:54;18.50;90.50
8248;DHT22;4164;49.844;8.830;2023-06-05T07:22:20;18.70;88.90
8248;DHT22;4164;49.844;8.830;2023-06-05T07:24:45;18.70;89.70
8248;DHT22;4164;49.844;8.830;2023-06-05T07:27:11;18.90;87.70
8248;DHT22;4164;49.844;8.830;2023-06-05T07:29:37;19.00;86.00
8248;DHT22;4164;49.844;8.830;2023-06-05T07:32:03;19.10;87.80
8248;DHT22;4164;49.844;8.830;2023-06-05T07:34:32;19.30;91.00
8248;DHT22;4164;49.844;8.830;2023-06-05T07:36:59;19.50;91.00
8248;DHT22;4164;49.844;8.830;2023-06-05T07:39:25;19.70;87.50
8248;DHT22;4164;49.844;8.830;2023-06-05T07:41:50;19.80;83.80
8248;DHT22;4164;49.844;8.830;2023-06-05T07:44:18;19.80;82.60
8248;DHT22;4164;49.844;8.830;2023-06-05T07:46:47;19.90;87.10
8248;DHT22;4164;49.844;8.830;2023-06-05T07:49:13;20.10;81.30
8248;DHT22;4164;49.844;8.830;2023-06-05T07:51:39;20.30;80.60
8248;DHT22;4164;49.844;8.830;2023-06-05T07:54:10;20.30;81.80
8248;DHT22;4164;49.844;8.830;2023-06-05T07:56:36;20.60;81.30
8248;DHT22;4164;49.844;8.830;2023-06-05T07:59:03;20.70;75.60
8248;DHT22;4164;49.844;8.830;2023-06-05T08:01:29;20.80;76.20
8248;DHT22;4164;49.844;8.830;2023-06-05T08:03:55;20.70;73.70
8248;DHT22;4164;49.844;8.830;2023-06-05T08:06:21;20.60;72.90
8248;DHT22;4164;49.844;8.830;2023-06-05T08:08:49;20.60;74.20
8248;DHT22;4164;49.844;8.830;2023-06-05T08:11:15;20.80;74.00
8248;DHT22;4164;49.844;8.830;2023-06-05T08:13:40;21.00;72.80
8248;DHT22;4164;49.844;8.830;2023-06-05T08:16:06;21.20;73.40
8248;DHT22;4164;49.844;8.830;2023-06-05T08:18:32;21.40;72.40
8248;DHT22;4164;49.844;8.830;2023-06-05T08:20:58;21.30;71.30
8248;DHT22;4164;49.844;8.830;2023-06-05T08:23:23;21.30;72.30
8248;DHT22;4164;49.844;8.830;2023-06-05T08:25:49;21.40;71.60
8248;DHT22;4164;49.844;8.830;2023-06-05T08:28:15;21.60;70.80
8248;DHT22;4164;49.844;8.830;2023-06-05T08:30:41;21.70;71.20
8248;DHT22;4164;49.844;8.830;2023-06-05T08:33:07;21.80;70.00
8248;DHT22;4164;49.844;8.830;2023-06-05T08:35:32;21.90;73.00
8248;DHT22;4164;49.844;8.830;2023-06-05T08:37:58;22.20;69.60
8248;DHT22;4164;49.844;8.830;2023-06-05T08:40:27;22.20;71.10
8248;DHT22;4164;49.844;8.830;2023-06-05T08:42:53;22.30;73.30
8248;DHT22;4164;49.844;8.830;2023-06-05T08:45:19;22.40;68.40
8248;DHT22;4164;49.844;8.830;2023-06-05T08:47:49;22.40;68.60
8248;DHT22;4164;49.844;8.830;2023-06-05T08:50:16;22.70;74.50
8248;DHT22;4164;49.844;8.830;2023-06-05T08:52:43;22.90;70.60
8248;DHT22;4164;49.844;8.830;2023-06-05T08:55:09;22.80;65.70
8248;DHT22;4164;49.844;8.830;2023-06-05T08:57:40;22.80;66.50
8248;DHT22;4164;49.844;8.830;2023-06-05T09:00:06;23.00;70.90
8248;DHT22;4164;49.844;8.830;2023-06-05T09:02:37;23.20;69.90
8248;DHT22;4164;49.844;8.830;2023-06-05T09:05:04;23.30;63.80
8248;DHT22;4164;49.844;8.830;2023-06-05T09:07:30;23.20;65.20
8248;DHT22;4164;49.844;8.830;2023-06-05T09:09:57;23.30;64.20
8248;DHT22;4164;49.844;8.830;2023-06-05T09:12:22;23.50;71.00
8248;DHT22;4164;49.844;8.830;2023-06-05T09:14:50;23.70;68.20
8248;DHT22;4164;49.844;8.830;2023-06-05T09:17:16;24.00;64.90
8248;DHT22;4164;49.844;8.830;2023-06-05T09:19:43;24.00;61.00
8248;DHT22;4164;49.844;8.830;2023-06-05T09:22:10;23.80;62.20
8248;DHT22;4164;49.844;8.830;2023-06-05T09:24:40;23.80;63.60
8248;DHT22;4164;49.844;8.830;2023-06-05T09:27:16;24.00;65.70
8248;DHT22;4164;49.844;8.830;2023-06-05T09:29:42;24.20;64.00
8248;DHT22;4164;49.844;8.830;2023-06-05T09:32:16;24.50;64.20
8248;DHT22;4164;49.844;8.830;2023-06-05T09:34:43;24.70;68.30
8248;DHT22;4164;49.844;8.830;2023-06-05T09:37:12;24.90;62.90
8248;DHT22;4164;49.844;8.830;2023-06-05T09:39:39;24.90;62.10
8248;DHT22;4164;49.844;8.830;2023-06-05T09:42:06;24.80;61.50
8248;DHT22;4164;49.844;8.830;2023-06-05T09:44:33;25.10;64.10
8248;DHT22;4164;49.844;8.830;2023-06-05T09:47:00;25.10;62.50
8248;DHT22;4164;49.844;8.830;2023-06-05T09:49:35;25.00;61.60
8248;DHT22;4164;49.844;8.830;2023-06-05T09:52:12;25.10;58.00
8248;DHT22;4164;49.844;8.830;2023-06-05T09:54:40;25.20;65.40
8248;DHT22;4164;49.844;8.830;2023-06-05T09:57:08;25.30;59.20
8248;DHT22;4164;49.844;8.830;2023-06-05T09:59:51;25.60;57.00
8248;DHT22;4164;49.844;8.830;2023-06-05T10:02:20;25.70;55.00
8248;DHT22;4164;49.844;8.830;2023-06-05T10:04:48;26.00;56.00
8248;DHT22;4164;49.844;8.830;2023-06-05T10:07:15;26.20;54.60
8248;DHT22;4164;49.844;8.830;2023-06-05T10:09:41;26.30;52.60
8248;DHT22;4164;49.844;8.830;2023-06-05T10:12:08;26.20;53.30
8248;DHT22;4164;49.844;8.830;2023-06-05T10:14:36;26.50;52.80
8248;DHT22;4164;49.844;8.830;2023-06-05T10:17:02;26.60;50.60
8248;DHT22;4164;49.844;8.830;2023-06-05T10:19:27;26.70;54.00
8248;DHT22;4164;49.844;8.830;2023-06-05T10:21:53;26.90;51.40
8248;DHT22;4164;49.844;8.830;2023-06-05T10:24:22;27.00;52.10
8248;DHT22;4164;49.844;8.830;2023-06-05T10:29:55;27.10;54.90
8248;DHT22;4164;49.844;8.830;2023-06-05T10:40:33;27.30;46.00
8248;DHT22;4164;49.844;8.830;2023-06-05T10:43:27;27.50;45.80
8248;DHT22;4164;49.844;8.830;2023-06-05T10:45:54;27.70;46.40
8248;DHT22;4164;49.844;8.830;2023-06-05T10:48:20;27.70;46.00
8248;DHT22;4164;49.844;8.830;2023-06-05T10:50:46;27.90;43.50
8248;DHT22;4164;49.844;8.830;2023-06-05T10:53:41;27.80;42.20
8248;DHT22;4164;49.844;8.830;2023-06-05T10:56:07;27.90;43.60
8248;DHT22;4164;49.844;8.830;2023-06-05T10:58:33;28.10;46.70
8248;DHT22;4164;49.844;8.830;2023-06-05T11:01:18;28.40;42.80
8248;DHT22;4164;49.844;8.830;2023-06-05T11:03:58;28.30;41.50
8248;DHT22;4164;49.844;8.830;2023-06-05T11:06:25;28.30;43.40
8248;DHT22;4164;49.844;8.830;2023-06-05T11:09:11;28.20;44.00
8248;DHT22;4164;49.844;8.830;2023-06-05T11:11:59;28.40;42.70
8248;DHT22;4164;49.844;8.830;2023-06-05T11:14:46;28.60;45.70
8248;DHT22;4164;49.844;8.830;2023-06-05T11:17:30;28.60;44.70
8248;DHT22;4164;49.844;8.830;2023-06-05T11:19:58;28.70;44.30
8248;DHT22;4164;49.844;8.830;2023-06-05T11:22:23;28.80;42.20
8248;DHT22;4164;49.844;8.830;2023-06-05T11:27:43;29.30;41.50
8248;DHT22;4164;49.844;8.830;2023-06-05T11:30:17;29.60;38.80
8248;DHT22;4164;49.844;8.830;2023-06-05T11:32:44;30.00;38.30
8248;DHT22;4164;49.844;8.830;2023-06-05T11:35:10;30.90;37.20
8248;DHT22;4164;49.844;8.830;2023-06-05T11:37:37;32.30;38.60
8248;DHT22;4164;49.844;8.830;2023-06-05T11:40:04;33.70;34.90
8248;DHT22;4164;49.844;8.830;2023-06-05T11:42:34;33.60;35.60
8248;DHT22;4164;49.844;8.830;2023-06-05T11:44:59;35.00;35.10
8248;DHT22;4164;49.844;8.830;2023-06-05T11:47:27;36.50;29.80
8248;DHT22;4164;49.844;8.830;2023-06-05T11:50:08;36.80;28.90
8248;DHT22;4164;49.844;8.830;2023-06-05T11:52:35;37.50;28.60
8248;DHT22;4164;49.844;8.830;2023-06-05T11:57:44;38.70;28.60
8248;DHT22;4164;49.844;8.830;2023-06-05T12:00:11;38.90;27.30
8248;DHT22;4164;49.844;8.830;2023-06-05T12:02:37;39.20;29.20
8248;DHT22;4164;49.844;8.830;2023-06-05T12:05:07;39.90;29.60
8248;DHT22;4164;49.844;8.830;2023-06-05T12:07:33;40.30;26.50
8248;DHT22;4164;49.844;8.830;2023-06-05T12:10:09;40.00;25.60
8248;DHT22;4164;49.844;8.830;2023-06-05T12:12:55;39.70;25.60
8248;DHT22;4164;49.844;8.830;2023-06-05T12:15:21;40.00;26.50
8248;DHT22;4164;49.844;8.830;2023-06-05T12:17:54;39.30;26.70
8248;DHT22;4164;49.844;8.830;2023-06-05T12:20:20;39.20;28.20
8248;DHT22;4164;49.844;8.830;2023-06-05T12:22:47;39.00;27.80
8248;DHT22;4164;49.844;8.830;2023-06-05T12:27:45;38.70;25.30
8248;DHT22;4164;49.844;8.830;2023-06-05T12:30:12;37.50;25.90
8248;DHT22;4164;49.844;8.830;2023-06-05T12:32:38;38.50;27.40
8248;DHT22;4164;49.844;8.830;2023-06-05T12:35:18;39.10;27.90
8248;DHT22;4164;49.844;8.830;2023-06-05T12:37:44;39.70;25.70
8248;DHT22;4164;49.844;8.830;2023-06-05T12:40:11;40.30;26.80
8248;DHT22;4164;49.844;8.830;2023-06-05T12:42:38;40.00;25.70
8248;DHT22;4164;49.844;8.830;2023-06-05T12:45:05;40.50;26.20
8248;DHT22;4164;49.844;8.830;2023-06-05T12:47:31;41.00;26.20
8248;DHT22;4164;49.844;8.830;2023-06-05T12:49:57;41.00;25.50
8248;DHT22;4164;49.844;8.830;2023-06-05T12:52:23;40.60;26.30
8248;DHT22;4164;49.844;8.830;2023-06-05T12:54:52;40.60;27.50
8248;DHT22;4164;49.844;8.830;2023-06-05T12:57:17;40.20;26.40
8248;DHT22;4164;49.844;8.830;2023-06-05T12:59:46;40.30;26.90
8248;DHT22;4164;49.844;8.830;2023-06-05T13:02:12;41.30;24.20
8248;DHT22;4164;49.844;8.830;2023-06-05T13:04:39;39.90;24.90
8248;DHT22;4164;49.844;8.830;2023-06-05T13:07:05;38.50;26.20
8248;DHT22;4164;49.844;8.830;2023-06-05T13:09:32;36.90;27.70
8248;DHT22;4164;49.844;8.830;2023-06-05T13:11:58;37.80;28.00
8248;DHT22;4164;49.844;8.830;2023-06-05T13:14:28;36.90;27.60
8248;DHT22;4164;49.844;8.830;2023-06-05T13:16:54;37.30;27.40
8248;DHT22;4164;49.844;8.830;2023-06-05T13:19:19;39.70;24.70
8248;DHT22;4164;49.844;8.830;2023-06-05T13:21:46;38.70;27.50
8248;DHT22;4164;49.844;8.830;2023-06-05T13:24:12;39.20;27.90
8248;DHT22;4164;49.844;8.830;2023-06-05T13:26:37;40.30;26.40
8248;DHT22;4164;49.844;8.830;2023-06-05T13:29:03;40.80;26.00
8248;DHT22;4164;49.844;8.830;2023-06-05T13:31:28;40.60;27.00
8248;DHT22;4164;49.844;8.830;2023-06-05T13:33:56;41.90;23.90
8248;DHT22;4164;49.844;8.830;2023-06-05T13:36:21;41.90;23.40
8248;DHT22;4164;49.844;8.830;2023-06-05T13:38:49;41.30;25.60
8248;DHT22;4164;49.844;8.830;2023-06-05T13:41:14;41.80;24.00
8248;DHT22;4164;49.844;8.830;2023-06-05T13:43:40;41.10;23.70
8248;DHT22;4164;49.844;8.830;2023-06-05T13:46:06;42.50;22.40
8248;DHT22;4164;49.844;8.830;2023-06-05T13:48:31;42.30;24.70
8248;DHT22;4164;49.844;8.830;2023-06-05T13:50:59;41.30;27.50
8248;DHT22;4164;49.844;8.830;2023-06-05T13:53:24;42.40;24.30
8248;DHT22;4164;49.844;8.830;2023-06-05T13:55:50;39.90;23.90
8248;DHT22;4164;49.844;8.830;2023-06-05T13:58:16;38.40;27.70
8248;DHT22;4164;49.844;8.830;2023-06-05T14:00:42;39.90;25.60
8248;DHT22;4164;49.844;8.830;2023-06-05T14:03:09;40.50;25.40
8248;DHT22;4164;49.844;8.830;2023-06-05T14:05:36;40.30;24.10
8248;DHT22;4164;49.844;8.830;2023-06-05T14:08:02;39.80;24.50
8248;DHT22;4164;49.844;8.830;2023-06-05T14:10:27;37.00;26.70
8248;DHT22;4164;49.844;8.830;2023-06-05T14:12:56;36.70;28.20
8248;DHT22;4164;49.844;8.830;2023-06-05T14:15:21;37.90;27.10
8248;DHT22;4164;49.844;8.830;2023-06-05T14:17:49;38.90;26.30
8248;DHT22;4164;49.844;8.830;2023-06-05T14:20:15;39.50;24.50
8248;DHT22;4164;49.844;8.830;2023-06-05T14:22:41;40.60;23.60
8248;DHT22;4164;49.844;8.830;2023-06-05T14:25:07;40.80;24.60
8248;DHT22;4164;49.844;8.830;2023-06-05T14:27:34;41.10;23.50
8248;DHT22;4164;49.844;8.830;2023-06-05T14:29:59;40.30;24.20
8248;DHT22;4164;49.844;8.830;2023-06-05T14:32:25;39.80;24.60
8248;DHT22;4164;49.844;8.830;2023-06-05T14:34:50;39.70;24.70
8248;DHT22;4164;49.844;8.830;2023-06-05T14:37:16;39.80;25.00
8248;DHT22;4164;49.844;8.830;2023-06-05T14:39:41;40.60;24.50
8248;DHT22;4164;49.844;8.830;2023-06-05T14:42:08;40.20;23.90
8248;DHT22;4164;49.844;8.830;2023-06-05T14:44:34;39.20;24.10
8248;DHT22;4164;49.844;8.830;2023-06-05T14:47:00;38.10;24.90
8248;DHT22;4164;49.844;8.830;2023-06-05T14:49:25;38.20;25.00
8248;DHT22;4164;49.844;8.830;2023-06-05T14:51:51;37.60;26.30
8248;DHT22;4164;49.844;8.830;2023-06-05T14:54:17;37.70;26.00
8248;DHT22;4164;49.844;8.830;2023-06-05T14:56:43;38.00;26.30
8248;DHT22;4164;49.844;8.830;2023-06-05T14:59:08;37.90;26.30
8248;DHT22;4164;49.844;8.830;2023-06-05T15:01:34;38.20;26.40
8248;DHT22;4164;49.844;8.830;2023-06-05T15:04:00;37.50;26.10
8248;DHT22;4164;49.844;8.830;2023-06-05T15:06:25;36.30;26.60
8248;DHT22;4164;49.844;8.830;2023-06-05T15:08:51;34.50;28.00
8248;DHT22;4164;49.844;8.830;2023-06-05T15:11:17;32.80;28.70
8248;DHT22;4164;49.844;8.830;2023-06-05T15:13:42;31.40;29.60
8248;DHT22;4164;49.844;8.830;2023-06-05T15:16:08;30.60;30.20
8248;DHT22;4164;49.844;8.830;2023-06-05T15:18:34;29.50;30.40
8248;DHT22;4164;49.844;8.830;2023-06-05T15:20:59;28.60;32.20
8248;DHT22;4164;49.844;8.830;2023-06-05T15:23:25;28.90;33.90
8248;DHT22;4164;49.844;8.830;2023-06-05T15:25:50;29.00;33.30
8248;DHT22;4164;49.844;8.830;2023-06-05T15:28:16;29.10;32.10
8248;DHT22;4164;49.844;8.830;2023-06-05T15:30:42;28.20;35.40
8248;DHT22;4164;49.844;8.830;2023-06-05T15:33:08;28.10;44.60
8248;DHT22;4164;49.844;8.830;2023-06-05T15:35:37;27.30;41.20
8248;DHT22;4164;49.844;8.830;2023-06-05T15:38:08;26.80;37.10
8248;DHT22;4164;49.844;8.830;2023-06-05T15:40:34;26.80;39.90
8248;DHT22;4164;49.844;8.830;2023-06-05T15:43:09;26.80;40.20
8248;DHT22;4164;49.844;8.830;2023-06-05T15:45:38;27.00;38.60
8248;DHT22;4164;49.844;8.830;2023-06-05T15:48:04;27.00;38.00
8248;DHT22;4164;49.844;8.830;2023-06-05T15:50:30;27.20;35.90
8248;DHT22;4164;49.844;8.830;2023-06-05T15:52:56;26.90;36.30
8248;DHT22;4164;49.844;8.830;2023-06-05T15:55:21;26.70;35.70
8248;DHT22;4164;49.844;8.830;2023-06-05T15:57:47;26.50;38.60
8248;DHT22;4164;49.844;8.830;2023-06-05T16:00:17;26.50;38.00
8248;DHT22;4164;49.844;8.830;2023-06-05T16:02:43;26.50;37.60
8248;DHT22;4164;49.844;8.830;2023-06-05T16:05:11;26.70;38.20
8248;DHT22;4164;49.844;8.830;2023-06-05T16:07:37;26.90;36.10
8248;DHT22;4164;49.844;8.830;2023-06-05T16:10:02;27.00;37.30
8248;DHT22;4164;49.844;8.830;2023-06-05T16:12:28;27.20;37.40
8248;DHT22;4164;49.844;8.830;2023-06-05T16:14:54;27.10;35.70
8248;DHT22;4164;49.844;8.830;2023-06-05T16:17:20;27.10;37.10
8248;DHT22;4164;49.844;8.830;2023-06-05T16:19:46;27.40;36.70
8248;DHT22;4164;49.844;8.830;2023-06-05T16:22:11;27.50;35.90
8248;DHT22;4164;49.844;8.830;2023-06-05T16:24:37;27.40;36.60